International Virtual Aviation Organisation

Russian Federation and Kazakhstan MCD

 

Карточка аэропорта UAII

Внимание!
Информация на этой странице в стадии наполнения.
Если вы не увидели какой-то информации, или заметили неточность - пожалуйста сообщите нам!
Спасибо!
Команда RU-STAFF
Название аэропортаШымкент
Название аэропорта (англ.)Shymkent
Превышение1389 ft. (423.4 m.)
Координаты42°21.348', 69°28.734'
Высота перехода5000
Эшелон переходаFL70
Коды ответчика3430-3437, 3530-3537
Зона ОрВДШымкент РПИ (UAII)
Данные METARUAII 281110Z 27004MPS 3600 -SHSNRA BR OVC022CB 00/00 Q1041 R28/690846 NOSIG RMK QFE743/0990
Проноз погоды (TAF)UAII 280500Z 2806/2906 26005G10MPS 2000 -SHSN BR BKN004 OVC020CB TX01/2809Z TNM04/2902Z TEMPO 2806/2816 23010G15MPS 0500 +SHSN BLSN BKN002 OVC010CB TEMPO 2816/2904 13003G08MPS 0300 FZFG VV002
NOTAMshow/hide NOTAM
AWOS   TABLE

Информация о ВПП

ВПП Длина ВПП (м.) Покрытие Курс ВПП Частота ILS
103300Железобетон106111.7
283300Железобетон286110.3

Диспетчерские позиции




Спутниковое изображение